Time;durP1;ratioP1;P1;durP2;ratioP2;P2;SDS_P1;SDS_P2;PMS_P1;PMS_P2;Temp;Humidity;BMP_temperature;BMP_pressure;BME280_temperature;BME280_humidity;BME280_pressure;Samples;Min_cycle;Max_cycle;Signal;HPM_P1;HPM_P2
2024/02/04 00:01:29;;;;;;;13.35;8.48;;;17.50;59.30;;;;;;5051871;28;20270;-66
2024/02/04 00:03:54;;;;;;;14.18;8.57;;;17.50;59.20;;;;;;5049658;28;20253;-67
2024/02/04 00:06:20;;;;;;;10.05;6.65;;;17.50;59.30;;;;;;5051622;28;20302;-66
2024/02/04 00:08:45;;;;;;;11.40;7.30;;;17.50;59.30;;;;;;5049577;28;20175;-67
2024/02/04 00:11:11;;;;;;;14.07;7.80;;;17.50;59.20;;;;;;5052147;28;20569;-68
2024/02/04 00:13:38;;;;;;;13.30;8.07;;;17.50;59.30;;;;;;5051832;28;20739;-68
2024/02/04 00:16:04;;;;;;;11.93;7.63;;;17.40;59.30;;;;;;5051600;28;20233;-67
2024/02/04 00:18:29;;;;;;;11.38;7.40;;;17.40;59.20;;;;;;5050844;28;20179;-67
2024/02/04 00:20:55;;;;;;;14.82;7.60;;;17.40;59.20;;;;;;5051277;28;20189;-67
2024/02/04 00:23:24;;;;;;;10.40;6.60;;;17.40;59.20;;;;;;5050398;28;20168;-66
2024/02/04 00:25:49;;;;;;;11.70;7.40;;;17.40;59.20;;;;;;5051899;28;20224;-66
2024/02/04 00:28:15;;;;;;;8.70;6.43;;;17.40;59.20;;;;;;5051855;28;20179;-67
2024/02/04 00:30:40;;;;;;;11.48;7.28;;;17.40;59.20;;;;;;5050626;28;20236;-66
2024/02/04 00:33:06;;;;;;;10.77;6.43;;;17.40;59.30;;;;;;5052029;28;20171;-67
2024/02/04 00:35:31;;;;;;;13.25;7.03;;;17.40;59.20;;;;;;5051566;28;20183;-65
2024/02/04 00:37:57;;;;;;;12.90;7.15;;;17.40;59.40;;;;;;5051224;28;20182;-66
2024/02/04 00:40:22;;;;;;;8.55;6.57;;;17.40;59.20;;;;;;5051075;28;20175;-66
2024/02/04 00:42:48;;;;;;;12.18;6.80;;;17.30;59.30;;;;;;5051719;28;20215;-67
2024/02/04 00:45:13;;;;;;;11.32;7.28;;;17.30;59.30;;;;;;5051340;28;20174;-67
2024/02/04 00:47:39;;;;;;;10.40;6.28;;;17.40;59.40;;;;;;5051610;28;20554;-67
2024/02/04 00:50:05;;;;;;;9.95;6.30;;;17.30;59.40;;;;;;5051305;28;20549;-67
2024/02/04 00:52:30;;;;;;;9.00;6.00;;;17.30;59.30;;;;;;5050246;28;20186;-67
2024/02/04 00:54:56;;;;;;;10.95;7.13;;;17.30;59.20;;;;;;5051729;28;20171;-68
2024/02/04 00:57:21;;;;;;;9.23;5.88;;;17.30;59.30;;;;;;5051056;28;20308;-67
2024/02/04 00:59:50;;;;;;;8.70;6.07;;;17.30;59.20;;;;;;5051100;28;20266;-67
2024/02/04 01:02:15;;;;;;;8.85;6.00;;;17.30;59.30;;;;;;5050766;28;20184;-66
2024/02/04 01:04:41;;;;;;;8.82;6.03;;;17.30;59.20;;;;;;5051255;28;20252;-66
2024/02/04 01:07:07;;;;;;;8.15;5.55;;;17.20;59.20;;;;;;5050545;28;20715;-68
2024/02/04 01:09:32;;;;;;;9.55;5.55;;;17.20;59.20;;;;;;5051110;28;20171;-67
2024/02/04 01:11:58;;;;;;;10.15;5.72;;;17.20;59.10;;;;;;5050656;28;20219;-69
2024/02/04 01:14:23;;;;;;;7.32;4.82;;;17.30;59.20;;;;;;5052833;28;20179;-68
2024/02/04 01:16:49;;;;;;;9.80;5.05;;;17.20;59.20;;;;;;5054443;28;20189;-66
2024/02/04 01:19:14;;;;;;;9.05;5.85;;;17.20;59.20;;;;;;5054218;28;20498;-67
2024/02/04 01:21:40;;;;;;;8.40;5.43;;;17.20;59.20;;;;;;5054367;28;20198;-65
2024/02/04 01:24:05;;;;;;;7.43;4.97;;;17.20;59.10;;;;;;5055061;28;20688;-68
2024/02/04 01:26:31;;;;;;;6.50;5.30;;;17.20;59.10;;;;;;5054008;28;20266;-67
2024/02/04 01:28:56;;;;;;;7.30;5.07;;;17.20;59.10;;;;;;5055017;28;20203;-68
2024/02/04 01:31:22;;;;;;;8.02;5.25;;;17.20;59.10;;;;;;5054725;28;20298;-65
2024/02/04 01:33:47;;;;;;;7.28;4.40;;;17.20;59.10;;;;;;5053873;28;20194;-65
2024/02/04 01:36:13;;;;;;;9.32;5.18;;;17.20;59.10;;;;;;5054485;28;20202;-66
2024/02/04 01:38:38;;;;;;;7.50;5.07;;;17.20;59.10;;;;;;5053944;28;20598;-67
2024/02/04 01:41:04;;;;;;;6.38;4.75;;;17.20;59.20;;;;;;5053677;28;20183;-68
2024/02/04 01:43:31;;;;;;;5.50;4.22;;;17.20;59.10;;;;;;5054584;28;20172;-67
2024/02/04 01:45:56;;;;;;;6.25;5.05;;;17.10;59.10;;;;;;5054934;28;20182;-67
2024/02/04 01:48:25;;;;;;;6.05;4.75;;;17.10;59.10;;;;;;5053484;28;20167;-67
2024/02/04 01:50:51;;;;;;;6.22;4.45;;;17.10;59.20;;;;;;5054315;28;20211;-66
2024/02/04 01:53:17;;;;;;;7.57;4.72;;;17.10;59.20;;;;;;5053299;28;20187;-67
2024/02/04 01:55:43;;;;;;;7.22;4.65;;;17.10;59.20;;;;;;5052504;28;20182;-68
2024/02/04 01:58:11;;;;;;;5.63;4.03;;;17.10;59.20;;;;;;5053154;28;20231;-67
2024/02/04 02:00:37;;;;;;;6.00;4.35;;;17.10;59.20;;;;;;5052842;28;20400;-67
2024/02/04 02:03:05;;;;;;;5.75;4.43;;;17.10;59.20;;;;;;5053335;28;20175;-67
2024/02/04 02:05:33;;;;;;;6.00;4.10;;;17.10;59.20;;;;;;5052766;28;20657;-66
2024/02/04 02:07:59;;;;;;;6.97;4.65;;;17.10;59.20;;;;;;5054083;28;20654;-67
2024/02/04 02:10:24;;;;;;;5.95;4.25;;;17.10;59.20;;;;;;5051811;28;20199;-67
2024/02/04 02:13:16;;;;;;;5.75;4.05;;;17.10;59.20;;;;;;5054122;28;20179;-68
2024/02/04 02:15:45;;;;;;;4.85;3.50;;;17.10;59.20;;;;;;5051840;28;20202;-67
2024/02/04 02:18:16;;;;;;;7.38;4.57;;;17.10;59.20;;;;;;5052937;28;20183;-69
2024/02/04 02:21:09;;;;;;;5.97;3.78;;;17.10;59.20;;;;;;5052782;28;20602;-66
2024/02/04 02:23:36;;;;;;;4.70;4.15;;;17.00;59.20;;;;;;5052952;28;20673;-67
2024/02/04 02:26:03;;;;;;;5.63;4.20;;;17.00;59.20;;;;;;5051340;28;20190;-67
2024/02/04 02:28:28;;;;;;;6.43;4.20;;;17.00;59.20;;;;;;5052442;28;20228;-67
2024/02/04 02:30:54;;;;;;;6.38;4.68;;;17.00;59.20;;;;;;5053256;28;20211;-66
2024/02/04 02:33:20;;;;;;;7.18;4.40;;;17.00;59.20;;;;;;5053519;28;20170;-66
2024/02/04 02:35:46;;;;;;;6.20;4.63;;;17.00;59.20;;;;;;5053516;28;20192;-65
2024/02/04 02:38:17;;;;;;;6.35;3.88;;;17.00;59.20;;;;;;5035625;28;20211;-67
2024/02/04 02:40:49;;;;;;;5.75;4.32;;;17.00;59.20;;;;;;5052559;28;20622;-67
2024/02/04 02:43:15;;;;;;;5.40;4.35;;;17.00;59.20;;;;;;5052524;28;20171;-67
2024/02/04 02:45:45;;;;;;;5.47;3.97;;;17.00;59.30;;;;;;5034765;28;20174;-66
2024/02/04 02:48:10;;;;;;;5.80;4.40;;;17.00;59.20;;;;;;5053712;28;20175;-67
2024/02/04 02:50:36;;;;;;;5.35;3.75;;;17.00;59.30;;;;;;5051241;28;20294;-67
2024/02/04 02:53:02;;;;;;;8.20;3.92;;;17.00;59.30;;;;;;5052681;28;20184;-68
2024/02/04 02:55:27;;;;;;;4.30;3.75;;;16.90;59.20;;;;;;5053139;28;20182;-67
2024/02/04 02:57:53;;;;;;;5.47;3.50;;;16.90;59.30;;;;;;5052401;28;20379;-67
2024/02/04 03:00:18;;;;;;;6.10;4.15;;;17.00;59.30;;;;;;5052521;28;20179;-67
2024/02/04 03:02:47;;;;;;;6.13;3.80;;;16.90;59.30;;;;;;5053442;28;20223;-66
2024/02/04 03:05:13;;;;;;;5.15;4.20;;;16.90;59.30;;;;;;5052681;28;20190;-67
2024/02/04 03:07:38;;;;;;;6.78;4.00;;;16.90;59.30;;;;;;5053117;28;20183;-66
2024/02/04 03:10:04;;;;;;;6.97;3.97;;;16.90;59.30;;;;;;5052643;28;20286;-68
2024/02/04 03:12:30;;;;;;;4.90;3.58;;;16.90;59.30;;;;;;5052028;28;20183;-68
2024/02/04 03:14:55;;;;;;;4.13;3.70;;;16.90;59.30;;;;;;5052859;28;20183;-67
2024/02/04 03:17:22;;;;;;;4.07;3.15;;;16.90;59.40;;;;;;5052639;28;20200;-67
2024/02/04 03:19:48;;;;;;;5.18;3.63;;;16.90;59.40;;;;;;5051719;28;20183;-66
2024/02/04 03:22:14;;;;;;;4.25;3.63;;;16.90;59.40;;;;;;5051885;28;20175;-66
2024/02/04 03:24:39;;;;;;;5.15;3.95;;;16.90;59.40;;;;;;5051113;28;20606;-67
2024/02/04 03:27:05;;;;;;;4.80;3.70;;;16.90;59.40;;;;;;5052492;28;20171;-67
2024/02/04 03:29:31;;;;;;;5.57;3.63;;;16.90;59.40;;;;;;5052447;28;20170;-66
2024/02/04 03:31:56;;;;;;;4.85;3.25;;;16.90;59.40;;;;;;5052851;28;20218;-66
2024/02/04 03:34:22;;;;;;;4.18;3.40;;;16.90;59.40;;;;;;5051392;28;21562;-64
2024/02/04 03:36:47;;;;;;;5.10;3.58;;;16.90;59.40;;;;;;5051426;28;20187;-66
2024/02/04 03:39:13;;;;;;;5.95;3.55;;;16.90;59.40;;;;;;5052708;28;20179;-67
2024/02/04 03:41:38;;;;;;;4.38;3.70;;;16.80;59.40;;;;;;5051575;28;20175;-66
2024/02/04 03:44:07;;;;;;;4.45;3.30;;;16.90;59.40;;;;;;5052011;28;21003;-67
2024/02/04 03:46:32;;;;;;;4.93;3.70;;;16.90;59.40;;;;;;5052176;28;20534;-65
2024/02/04 03:48:58;;;;;;;5.35;3.72;;;16.80;59.40;;;;;;5051555;28;20257;-67
2024/02/04 03:51:23;;;;;;;4.18;3.15;;;16.80;59.40;;;;;;5052183;28;20242;-66
2024/02/04 03:53:50;;;;;;;5.88;3.42;;;16.90;59.50;;;;;;5051309;28;20269;-67
2024/02/04 03:56:15;;;;;;;4.90;3.13;;;16.80;59.50;;;;;;5051965;28;20175;-67
2024/02/04 03:58:41;;;;;;;3.60;3.25;;;16.80;59.40;;;;;;5052233;28;20660;-67
2024/02/04 04:01:10;;;;;;;5.13;3.30;;;16.80;60.10;;;;;;5051462;28;20185;-67
2024/02/04 04:03:35;;;;;;;5.05;3.05;;;16.80;59.40;;;;;;5051880;28;20195;-67
2024/02/04 04:06:01;;;;;;;5.68;3.72;;;16.80;59.50;;;;;;5052202;28;20228;-67
2024/02/04 04:08:26;;;;;;;4.45;3.20;;;16.80;59.50;;;;;;5049465;28;20171;-67
2024/02/04 04:10:52;;;;;;;3.80;3.10;;;16.80;59.50;;;;;;5051567;28;20203;-67
2024/02/04 04:13:17;;;;;;;4.75;3.17;;;16.80;59.50;;;;;;5051970;28;20175;-67
2024/02/04 04:15:43;;;;;;;5.50;3.60;;;16.80;59.50;;;;;;5051399;28;20175;-66
2024/02/04 04:18:11;;;;;;;5.32;3.58;;;16.80;59.50;;;;;;5050875;28;20175;-67
2024/02/04 04:20:37;;;;;;;3.35;2.90;;;16.80;59.50;;;;;;5051334;28;20234;-66
2024/02/04 04:23:02;;;;;;;6.13;4.07;;;16.80;59.50;;;;;;5051377;28;20179;-68
2024/02/04 04:25:28;;;;;;;3.63;3.03;;;16.80;59.50;;;;;;5051130;28;20237;-66
2024/02/04 04:27:55;;;;;;;3.53;3.08;;;16.70;59.50;;;;;;5051923;28;20244;-67
2024/02/04 04:30:21;;;;;;;4.20;3.03;;;16.70;59.50;;;;;;5050995;28;20171;-64
2024/02/04 04:32:46;;;;;;;4.88;3.10;;;16.70;59.50;;;;;;5052065;28;20171;-65
2024/02/04 04:35:12;;;;;;;5.28;3.03;;;16.70;59.50;;;;;;5051567;28;20175;-65
2024/02/04 04:37:37;;;;;;;5.07;3.85;;;16.70;59.50;;;;;;5050973;28;20555;-66
2024/02/04 04:40:03;;;;;;;4.43;3.67;;;16.70;59.50;;;;;;5051897;28;20246;-67
2024/02/04 04:42:28;;;;;;;4.25;3.25;;;16.70;59.60;;;;;;5051494;28;20186;-67
2024/02/04 04:44:54;;;;;;;5.13;3.08;;;16.70;59.50;;;;;;5050404;28;20186;-67
2024/02/04 04:47:19;;;;;;;3.53;2.90;;;16.70;59.50;;;;;;5051170;28;20182;-66
2024/02/04 04:49:45;;;;;;;5.68;3.05;;;16.70;59.50;;;;;;5053897;28;20541;-67
2024/02/04 04:52:10;;;;;;;4.82;3.08;;;16.70;59.60;;;;;;5055088;28;20730;-68
2024/02/04 04:54:36;;;;;;;3.08;2.58;;;16.70;59.60;;;;;;5054968;28;20178;-67
2024/02/04 04:57:01;;;;;;;5.40;2.85;;;16.70;59.60;;;;;;5054805;28;20223;-69
2024/02/04 04:59:27;;;;;;;4.07;2.83;;;16.70;59.60;;;;;;5055512;28;20638;-66
2024/02/04 05:01:55;;;;;;;4.22;3.20;;;16.70;59.50;;;;;;5055738;28;20175;-66
2024/02/04 05:04:25;;;;;;;4.82;3.17;;;16.80;59.60;;;;;;5054183;28;20167;-67
2024/02/04 05:06:51;;;;;;;4.38;2.65;;;16.90;59.70;;;;;;5055529;28;20221;-66
2024/02/04 05:09:16;;;;;;;4.15;2.92;;;16.70;59.60;;;;;;5055149;28;20175;-67
2024/02/04 05:11:42;;;;;;;5.07;2.92;;;16.70;59.60;;;;;;5054766;28;20746;-66
2024/02/04 05:14:07;;;;;;;3.42;2.33;;;16.70;59.60;;;;;;5055175;28;20583;-68
2024/02/04 05:16:33;;;;;;;3.13;2.58;;;16.60;60.30;;;;;;5054809;28;20715;-66
2024/02/04 05:18:58;;;;;;;4.78;3.10;;;16.70;59.60;;;;;;5054756;28;20171;-68
2024/02/04 05:21:24;;;;;;;3.00;2.50;;;16.60;59.60;;;;;;5054984;28;20583;-66
2024/02/04 05:23:50;;;;;;;4.10;3.00;;;16.60;59.60;;;;;;5055269;28;20629;-67
2024/02/04 05:26:18;;;;;;;2.60;2.38;;;16.60;59.60;;;;;;5054467;28;20204;-66
2024/02/04 05:28:44;;;;;;;3.83;2.83;;;16.60;59.60;;;;;;5055407;28;20179;-66
2024/02/04 05:31:09;;;;;;;5.03;2.90;;;16.60;59.70;;;;;;5055148;28;20203;-67
2024/02/04 05:33:35;;;;;;;4.70;2.60;;;16.60;59.60;;;;;;5054451;28;20171;-64
2024/02/04 05:36:00;;;;;;;2.65;2.22;;;16.60;59.70;;;;;;5054721;28;20186;-64
2024/02/04 05:38:26;;;;;;;3.55;2.72;;;16.60;59.70;;;;;;5054710;28;20540;-66
2024/02/04 05:40:51;;;;;;;3.97;2.80;;;16.60;59.60;;;;;;5054349;28;20201;-65
2024/02/04 05:43:17;;;;;;;4.55;2.70;;;16.60;59.70;;;;;;5054835;28;20167;-66
2024/02/04 05:45:42;;;;;;;3.47;2.67;;;16.60;59.70;;;;;;5054488;28;20171;-65
2024/02/04 05:48:08;;;;;;;3.72;2.60;;;16.60;59.70;;;;;;5054133;28;20228;-66
2024/02/04 05:50:34;;;;;;;2.88;2.17;;;16.60;59.70;;;;;;5054285;28;20291;-66
2024/02/04 05:52:59;;;;;;;2.85;2.40;;;16.60;59.70;;;;;;5054637;28;20638;-67
2024/02/04 05:55:25;;;;;;;3.42;2.20;;;16.60;59.70;;;;;;5053406;28;20175;-65
2024/02/04 05:57:50;;;;;;;3.40;2.67;;;16.60;59.70;;;;;;5053125;28;20615;-66
2024/02/04 06:00:16;;;;;;;4.82;2.65;;;16.60;59.70;;;;;;5053686;28;20177;-66
2024/02/04 06:02:43;;;;;;;4.30;2.70;;;16.60;59.70;;;;;;5054545;28;20290;-66
2024/02/04 06:05:09;;;;;;;2.92;2.20;;;16.60;59.80;;;;;;5054363;28;20555;-66
2024/02/04 06:07:34;;;;;;;3.08;2.10;;;16.60;59.80;;;;;;5052991;28;20179;-66
2024/02/04 06:10:03;;;;;;;3.58;2.47;;;16.60;59.70;;;;;;5054436;28;20171;-67
2024/02/04 06:12:32;;;;;;;3.88;2.45;;;16.60;59.70;;;;;;5053882;28;20276;-67
2024/02/04 06:14:58;;;;;;;3.28;2.42;;;16.50;59.70;;;;;;5053627;28;20183;-67
2024/02/04 06:17:23;;;;;;;3.78;2.05;;;16.50;59.70;;;;;;5053453;28;20178;-67
2024/02/04 06:19:49;;;;;;;3.58;2.45;;;16.50;59.70;;;;;;5054108;28;20646;-66
2024/02/04 06:22:17;;;;;;;2.40;2.20;;;16.50;59.70;;;;;;5053073;28;20183;-67
2024/02/04 06:24:43;;;;;;;6.30;2.53;;;16.50;59.80;;;;;;5054210;28;20229;-68
2024/02/04 06:27:08;;;;;;;2.72;2.28;;;16.50;59.70;;;;;;5053860;28;20175;-69
2024/02/04 06:29:34;;;;;;;3.47;2.20;;;16.50;59.80;;;;;;5052981;28;20596;-67
2024/02/04 06:31:59;;;;;;;3.92;2.38;;;16.60;59.80;;;;;;5053920;28;20743;-66
2024/02/04 06:34:25;;;;;;;4.13;2.80;;;16.50;59.80;;;;;;5053566;28;20167;-66
2024/02/04 06:36:51;;;;;;;3.80;2.17;;;16.50;59.80;;;;;;5052597;28;20598;-68
2024/02/04 06:39:16;;;;;;;3.00;2.35;;;16.50;59.80;;;;;;5053373;28;20217;-67
2024/02/04 06:41:42;;;;;;;2.88;2.30;;;16.50;59.80;;;;;;5053389;28;20185;-67
2024/02/04 06:44:07;;;;;;;2.88;2.30;;;16.50;59.80;;;;;;5052621;28;20270;-67
2024/02/04 06:46:35;;;;;;;3.42;2.33;;;16.50;59.80;;;;;;5053424;28;20206;-66
2024/02/04 06:49:01;;;;;;;2.47;2.00;;;16.50;59.80;;;;;;5053520;28;20182;-68
2024/02/04 06:51:26;;;;;;;3.28;2.75;;;16.50;59.90;;;;;;5052461;28;20203;-67
2024/02/04 06:53:52;;;;;;;3.42;2.22;;;16.50;59.90;;;;;;5053054;28;20629;-68
2024/02/04 06:56:17;;;;;;;4.00;2.22;;;16.50;59.90;;;;;;5052770;28;20179;-67
2024/02/04 06:58:43;;;;;;;2.65;2.20;;;16.50;59.90;;;;;;5052775;28;20183;-67
2024/02/04 07:01:10;;;;;;;2.40;1.92;;;16.40;59.80;;;;;;5053343;28;20179;-68
2024/02/04 07:03:35;;;;;;;5.20;2.60;;;16.50;59.90;;;;;;5051872;28;20175;-65
2024/02/04 07:06:01;;;;;;;3.40;1.88;;;16.50;59.90;;;;;;5053207;28;20326;-66
2024/02/04 07:08:27;;;;;;;4.68;2.17;;;16.50;59.90;;;;;;5052610;28;20178;-67
2024/02/04 07:10:52;;;;;;;3.58;2.30;;;16.50;59.90;;;;;;5052156;28;20373;-68
2024/02/04 07:13:18;;;;;;;4.18;2.33;;;16.40;59.80;;;;;;5051987;28;20532;-68
2024/02/04 07:15:43;;;;;;;2.58;1.83;;;16.40;59.90;;;;;;5053185;28;20193;-66
2024/02/04 07:18:09;;;;;;;2.15;1.95;;;16.40;59.90;;;;;;5052003;28;20289;-67
2024/02/04 07:20:35;;;;;;;2.63;1.98;;;16.40;59.90;;;;;;5052713;28;20175;-65
2024/02/04 07:23:03;;;;;;;2.08;1.77;;;16.40;59.90;;;;;;5053234;28;20640;-67
2024/02/04 07:25:29;;;;;;;2.90;1.95;;;16.40;59.90;;;;;;5051054;28;20700;-66
2024/02/04 07:27:54;;;;;;;2.08;1.73;;;16.40;59.90;;;;;;5051688;28;20250;-66
2024/02/04 07:30:20;;;;;;;2.28;2.08;;;16.40;59.90;;;;;;5051261;28;20213;-65
2024/02/04 07:32:46;;;;;;;3.10;2.13;;;16.40;59.90;;;;;;5052169;28;20233;-65
2024/02/04 07:35:12;;;;;;;2.63;2.10;;;16.40;59.90;;;;;;5052821;28;20181;-66
2024/02/04 07:37:37;;;;;;;2.40;2.20;;;16.40;59.90;;;;;;5052610;28;20420;-66
2024/02/04 07:40:06;;;;;;;2.47;2.28;;;16.40;59.90;;;;;;5051590;28;20201;-67
2024/02/04 07:42:32;;;;;;;2.47;2.15;;;16.40;60.00;;;;;;5052272;28;20555;-66
2024/02/04 07:44:57;;;;;;;3.33;2.20;;;16.40;60.00;;;;;;5052301;28;20186;-67
2024/02/04 07:47:23;;;;;;;2.65;1.80;;;16.40;60.00;;;;;;5051328;28;20179;-66
2024/02/04 07:49:49;;;;;;;3.15;2.08;;;16.40;60.00;;;;;;5052318;28;20559;-67
2024/02/04 07:52:14;;;;;;;3.72;2.20;;;16.40;60.00;;;;;;5052542;28;20229;-67
2024/02/04 07:54:40;;;;;;;2.25;1.92;;;16.40;60.10;;;;;;5051530;28;20258;-67
2024/02/04 07:57:05;;;;;;;2.58;2.15;;;16.40;60.10;;;;;;5051789;28;20223;-68
2024/02/04 07:59:34;;;;;;;3.22;2.20;;;16.40;60.10;;;;;;5051534;28;20283;-65
2024/02/04 08:01:59;;;;;;;3.22;2.17;;;16.40;60.10;;;;;;5051386;28;20178;-66
2024/02/04 08:04:25;;;;;;;3.17;2.38;;;16.40;60.20;;;;;;5051747;28;20183;-66
2024/02/04 08:06:51;;;;;;;2.63;1.83;;;16.40;60.20;;;;;;5051495;28;20179;-66
2024/02/04 08:09:17;;;;;;;4.63;2.38;;;16.30;60.20;;;;;;5052099;28;20182;-67
2024/02/04 08:11:42;;;;;;;2.65;1.90;;;16.40;60.20;;;;;;5052158;28;20214;-67
2024/02/04 08:14:08;;;;;;;3.45;2.03;;;16.30;60.20;;;;;;5051480;28;20248;-68
2024/02/04 08:16:34;;;;;;;2.30;1.85;;;16.30;60.10;;;;;;5051185;28;20546;-67
2024/02/04 08:18:59;;;;;;;3.00;2.33;;;16.40;60.20;;;;;;5051888;28;20642;-67
2024/02/04 08:21:25;;;;;;;4.20;1.95;;;16.40;60.20;;;;;;5050484;28;20179;-64
2024/02/04 08:23:50;;;;;;;3.13;2.00;;;16.40;60.30;;;;;;5051234;28;20182;-66
2024/02/04 08:26:16;;;;;;;3.60;2.25;;;16.40;60.20;;;;;;5051662;28;20626;-62
2024/02/04 08:28:41;;;;;;;3.90;2.33;;;16.40;60.30;;;;;;5050882;28;20224;-64
2024/02/04 08:31:07;;;;;;;4.15;1.95;;;16.40;60.40;;;;;;5050894;28;20256;-65
2024/02/04 08:33:32;;;;;;;2.28;1.88;;;16.40;60.30;;;;;;5050953;28;20182;-63
2024/02/04 08:35:58;;;;;;;2.15;1.77;;;16.40;60.50;;;;;;5051400;28;20183;-65
2024/02/04 08:38:23;;;;;;;5.30;2.47;;;16.40;60.70;;;;;;5051462;28;20549;-65
2024/02/04 08:40:49;;;;;;;1.98;1.77;;;16.40;60.70;;;;;;5051762;28;20537;-64
2024/02/04 08:43:14;;;;;;;4.38;1.83;;;16.40;60.80;;;;;;5051030;28;20646;-64
2024/02/04 08:45:40;;;;;;;3.13;1.77;;;16.40;60.80;;;;;;5051468;28;20167;-64
2024/02/04 08:48:06;;;;;;;3.85;1.70;;;16.40;60.70;;;;;;5051681;28;20174;-65
2024/02/04 08:50:31;;;;;;;2.83;1.90;;;16.40;60.80;;;;;;5049846;28;20179;-65
2024/02/04 08:52:58;;;;;;;2.10;1.60;;;16.40;60.70;;;;;;5051394;28;20285;-66
2024/02/04 08:55:26;;;;;;;3.15;1.88;;;16.40;60.60;;;;;;5050753;28;20304;-65
2024/02/04 08:57:53;;;;;;;3.10;1.70;;;16.40;60.70;;;;;;5049749;28;20221;-65
2024/02/04 09:00:19;;;;;;;3.42;1.77;;;16.40;60.60;;;;;;5051077;28;20657;-64
2024/02/04 09:02:46;;;;;;;1.98;1.60;;;16.40;60.70;;;;;;5051539;28;20189;-64
2024/02/04 09:05:11;;;;;;;2.67;2.08;;;16.40;60.60;;;;;;5050524;28;20305;-65
2024/02/04 09:07:38;;;;;;;3.67;2.22;;;16.40;60.60;;;;;;5050658;28;20182;-65
2024/02/04 09:10:04;;;;;;;2.83;1.73;;;16.40;60.70;;;;;;5051570;28;20175;-66
2024/02/04 09:12:30;;;;;;;5.35;1.83;;;16.40;60.60;;;;;;5049808;28;20633;-65
2024/02/04 09:14:56;;;;;;;2.30;1.52;;;16.40;60.50;;;;;;5050188;28;20184;-66
2024/02/04 09:17:21;;;;;;;2.42;1.70;;;16.40;60.50;;;;;;5050181;28;20626;-66
2024/02/04 09:19:47;;;;;;;3.17;1.70;;;16.40;60.40;;;;;;5051593;28;20179;-64
2024/02/04 09:22:12;;;;;;;2.65;1.60;;;16.40;60.40;;;;;;5051566;28;20175;-66
2024/02/04 09:24:38;;;;;;;2.33;1.77;;;16.40;60.50;;;;;;5050225;28;20228;-65
2024/02/04 09:27:03;;;;;;;2.83;1.70;;;16.40;60.40;;;;;;5051497;28;20175;-66
2024/02/04 09:29:29;;;;;;;2.05;1.45;;;16.40;60.30;;;;;;5051087;28;20194;-63
2024/02/04 09:31:55;;;;;;;2.60;1.60;;;16.40;60.40;;;;;;5049613;28;20684;-65
2024/02/04 09:34:20;;;;;;;2.42;1.58;;;16.40;60.40;;;;;;5050928;28;20268;-63
2024/02/04 09:36:46;;;;;;;2.03;1.55;;;16.40;60.40;;;;;;5054913;28;20813;-63
2024/02/04 09:39:12;;;;;;;2.70;1.83;;;16.40;60.40;;;;;;5054241;28;20182;-65
2024/02/04 09:41:37;;;;;;;3.67;2.10;;;16.40;60.40;;;;;;5054142;28;20308;-63
2024/02/04 09:44:03;;;;;;;5.75;1.60;;;16.40;60.40;;;;;;5054826;28;20536;-65
2024/02/04 09:46:29;;;;;;;2.88;1.80;;;16.40;60.30;;;;;;5052415;28;20214;-64
2024/02/04 09:48:55;;;;;;;2.78;1.40;;;16.40;60.40;;;;;;5053000;28;20195;-67
2024/02/04 09:51:21;;;;;;;2.40;1.67;;;16.40;60.30;;;;;;5034546;28;20224;-65
2024/02/04 09:53:46;;;;;;;3.63;2.15;;;16.40;60.30;;;;;;5034201;28;20234;-66
2024/02/04 09:56:12;;;;;;;2.47;1.50;;;16.40;60.30;;;;;;5033463;28;20639;-66
2024/02/04 09:58:37;;;;;;;2.05;1.40;;;16.40;60.30;;;;;;5034340;28;20701;-66
2024/02/04 10:01:04;;;;;;;3.38;2.03;;;16.40;60.30;;;;;;5052367;28;20167;-65
2024/02/04 10:03:30;;;;;;;3.75;2.05;;;16.40;60.30;;;;;;5054153;28;20202;-64
2024/02/04 10:05:56;;;;;;;2.95;1.67;;;16.40;60.40;;;;;;5054457;28;20630;-64
2024/02/04 10:08:21;;;;;;;2.72;1.60;;;16.40;60.30;;;;;;5052058;28;20207;-65
2024/02/04 10:10:47;;;;;;;3.25;1.70;;;16.40;60.30;;;;;;5053767;28;20207;-65
2024/02/04 10:13:13;;;;;;;2.53;1.60;;;16.40;60.30;;;;;;5052939;28;20642;-67
2024/02/04 10:15:38;;;;;;;2.45;1.67;;;16.40;60.10;;;;;;5052995;28;20183;-65
2024/02/04 10:18:05;;;;;;;2.22;1.65;;;16.50;60.10;;;;;;5054026;28;20183;-65
2024/02/04 10:20:31;;;;;;;2.20;1.48;;;16.50;59.90;;;;;;5052984;28;20198;-64
2024/02/04 10:22:56;;;;;;;1.85;1.60;;;16.50;60.00;;;;;;5054112;28;20673;-66
2024/02/04 10:25:22;;;;;;;2.90;1.50;;;16.50;59.90;;;;;;5053864;28;20175;-64
2024/02/04 10:27:47;;;;;;;2.25;1.80;;;16.50;60.00;;;;;;5053218;28;20171;-66
2024/02/04 10:30:14;;;;;;;2.55;1.33;;;16.50;60.00;;;;;;5052220;28;20175;-64
2024/02/04 10:32:40;;;;;;;2.90;1.70;;;16.50;60.10;;;;;;5053255;28;20229;-64
2024/02/04 10:35:05;;;;;;;4.90;1.52;;;16.50;60.10;;;;;;5053130;28;20924;-66
2024/02/04 10:37:34;;;;;;;2.83;1.73;;;16.50;60.20;;;;;;5053608;28;20189;-65
2024/02/04 10:39:59;;;;;;;1.77;1.30;;;16.50;60.10;;;;;;5053901;28;20163;-66
2024/02/04 10:42:26;;;;;;;2.13;1.50;;;16.40;60.10;;;;;;5052078;28;20698;-66
2024/02/04 10:44:53;;;;;;;1.58;1.35;;;16.40;60.20;;;;;;5053490;28;20717;-65
2024/02/04 10:47:23;;;;;;;2.22;1.55;;;16.40;60.10;;;;;;5052672;28;20229;-65
2024/02/04 10:49:55;;;;;;;2.35;1.55;;;16.40;60.10;;;;;;5052971;28;20714;-65
2024/02/04 10:52:20;;;;;;;1.75;1.38;;;16.40;60.10;;;;;;5052864;28;20210;-66
2024/02/04 10:54:46;;;;;;;1.95;1.65;;;16.40;60.20;;;;;;5053435;28;20199;-66
2024/02/04 10:57:19;;;;;;;1.88;1.38;;;16.40;60.20;;;;;;5052561;28;20280;-67
2024/02/04 10:59:45;;;;;;;2.35;1.55;;;16.40;60.20;;;;;;5051932;28;20177;-65
2024/02/04 11:02:11;;;;;;;2.67;1.40;;;16.40;60.20;;;;;;5052107;28;20266;-65
2024/02/04 11:04:37;;;;;;;1.98;1.33;;;16.40;60.30;;;;;;5051697;28;20179;-64
2024/02/04 11:07:02;;;;;;;1.85;1.30;;;16.40;61.10;;;;;;5051364;28;20178;-66
2024/02/04 11:09:28;;;;;;;2.08;1.50;;;16.40;60.20;;;;;;5052345;28;20229;-65
2024/02/04 11:11:55;;;;;;;2.25;1.38;;;16.40;60.20;;;;;;5051176;28;20291;-67
2024/02/04 11:14:21;;;;;;;3.00;1.35;;;16.40;60.20;;;;;;5034834;28;20697;-67
2024/02/04 11:17:05;;;;;;;1.90;1.30;;;16.40;60.30;;;;;;5051892;28;20266;-65
2024/02/04 11:20:06;;;;;;;3.35;1.52;;;16.40;60.20;;;;;;5052735;28;20661;-66
2024/02/04 11:22:59;;;;;;;2.00;1.40;;;16.50;60.50;;;;;;5052850;28;20185;-66
2024/02/04 11:25:35;;;;;;;2.10;1.23;;;16.60;60.40;;;;;;5052094;28;20179;-64
2024/02/04 11:28:01;;;;;;;2.58;1.40;;;16.60;60.30;;;;;;5052721;28;20229;-65
2024/02/04 11:30:27;;;;;;;1.73;1.20;;;16.60;60.00;;;;;;5051245;28;20212;-64
2024/02/04 11:32:52;;;;;;;2.72;1.20;;;16.50;59.90;;;;;;5050060;28;20630;-65
2024/02/04 11:35:19;;;;;;;1.55;1.05;;;16.50;59.90;;;;;;5052664;28;20182;-64
2024/02/04 11:37:45;;;;;;;1.52;1.35;;;16.50;60.00;;;;;;5051539;28;20187;-64
2024/02/04 11:40:15;;;;;;;2.08;1.27;;;16.50;59.90;;;;;;5033918;28;20197;-65
2024/02/04 11:42:41;;;;;;;1.73;1.42;;;16.50;60.00;;;;;;5052071;28;20191;-65
2024/02/04 11:45:07;;;;;;;2.17;1.10;;;16.50;60.00;;;;;;5051719;28;20175;-66
2024/02/04 11:47:33;;;;;;;1.38;1.27;;;16.50;60.00;;;;;;5052564;28;20201;-65
2024/02/04 11:49:59;;;;;;;1.85;1.30;;;16.50;60.00;;;;;;5052426;28;20603;-66
2024/02/04 11:52:27;;;;;;;1.92;1.30;;;16.50;60.40;;;;;;5051033;28;20310;-66
2024/02/04 11:54:53;;;;;;;1.30;1.10;;;16.50;60.30;;;;;;5052491;28;20212;-66
2024/02/04 11:57:19;;;;;;;1.27;1.10;;;16.60;60.20;;;;;;5051945;28;21041;-65
2024/02/04 11:59:44;;;;;;;1.85;1.20;;;16.60;60.10;;;;;;5050323;28;20548;-65
2024/02/04 12:02:11;;;;;;;1.90;1.02;;;16.60;60.10;;;;;;5052442;28;20309;-65
2024/02/04 12:04:39;;;;;;;2.47;1.05;;;16.60;60.00;;;;;;5051041;28;20664;-64
2024/02/04 12:07:04;;;;;;;1.45;1.35;;;16.60;59.90;;;;;;5051774;28;20183;-65
2024/02/04 12:09:33;;;;;;;2.60;1.23;;;16.50;59.90;;;;;;5052174;28;20634;-66
2024/02/04 12:11:59;;;;;;;1.65;1.00;;;16.50;60.00;;;;;;5050524;28;20600;-67
2024/02/04 12:14:24;;;;;;;1.20;1.10;;;16.50;59.90;;;;;;5050057;28;20174;-67
2024/02/04 12:16:50;;;;;;;2.13;1.00;;;16.50;60.10;;;;;;5051234;28;20182;-66
2024/02/04 12:19:18;;;;;;;1.55;1.10;;;16.40;60.00;;;;;;5051944;28;20172;-66
2024/02/04 12:21:44;;;;;;;2.75;0.85;;;16.40;60.20;;;;;;5051041;28;20179;-65
2024/02/04 12:24:10;;;;;;;1.92;1.10;;;16.50;60.40;;;;;;5051974;28;20167;-66
2024/02/04 12:26:35;;;;;;;1.90;1.13;;;16.50;60.30;;;;;;5051821;28;20198;-67
2024/02/04 12:29:02;;;;;;;1.35;1.00;;;16.60;60.20;;;;;;5050705;28;20179;-67
2024/02/04 12:31:28;;;;;;;1.27;1.00;;;16.50;60.00;;;;;;5051482;28;20219;-64
2024/02/04 12:33:58;;;;;;;1.65;1.20;;;16.50;60.00;;;;;;5052066;28;20175;-64
2024/02/04 12:36:27;;;;;;;2.42;0.95;;;16.50;59.90;;;;;;5050785;28;20191;-64
2024/02/04 12:39:03;;;;;;;1.95;1.10;;;16.50;60.20;;;;;;5051418;28;20174;-66
2024/02/04 12:41:29;;;;;;;1.80;1.23;;;16.40;60.40;;;;;;5050788;28;20289;-64